SLC Intl Airport
, Salt Lake City
Last Weather Update:07/30/2011 11:00:00 PM
Date
ETo
ETc
Rain
Irrigation
Req
Temp
Max
Temp
Min
Temp
Avg
Avg RH
Avg Wind
Avg Solar
inches
inches
incehs
inches
F
F
F
%
%
watts/m2
06/01/2011 0.30" 0.24" 0.00" 0.24" 79.1° 60.2° 70.9° 17.9% 9.7 MPH 229.1w/m2
06/02/2011 0.21" 0.17" 0.00" 0.17" 69.4° 49.1° 55.5° 39.7% 8.7 MPH 329.7w/m2
06/03/2011 0.19" 0.16" 0.00" 0.16" 63.3° 45.3° 54.6° 48.1% 4.3 MPH 327.0w/m2
06/04/2011 0.22" 0.18" 0.00" 0.18" 75.9° 46.0° 61.6° 46.7% 4.1 MPH 313.0w/m2
06/05/2011 0.33" 0.26" 0.00" 0.26" 89.9° 53.1° 73.1° 29.0% 6.7 MPH 380.0w/m2
06/06/2011 0.26" 0.21" 0.00" 0.21" 84.5° 58.0° 69.8° 27.0% 8.5 MPH 237.5w/m2
06/07/2011 0.25" 0.20" 0.00" 0.20" 71.8° 49.4° 62.2° 45.2% 5.3 MPH 376.3w/m2
06/08/2011 0.19" 0.15" 0.08" 0.08" 72.3° 53.7° 61.4° 57.9% 6.4 MPH 253.9w/m2
06/09/2011 0.21" 0.17" 0.00" 0.17" 65.7° 49.7° 58.6° 53.7% 5.5 MPH 357.4w/m2
06/10/2011 0.26" 0.20" 0.00" 0.20" 75.5° 47.4° 62.9° 40.8% 5.6 MPH 344.3w/m2
06/11/2011 0.26" 0.21" 0.00" 0.21" 75.8° 58.2° 68.1° 46.6% 6.1 MPH 350.1w/m2
06/12/2011 0.22" 0.18" 0.00" 0.18" 75.3° 58.0° 66.5° 53.9% 5.1 MPH 318.5w/m2
06/13/2011 0.20" 0.16" 0.00" 0.16" 77.8° 59.1° 67.0° 48.9% 5.5 MPH 273.4w/m2
06/14/2011 0.26" 0.21" 0.09" 0.13" 76.1° 56.4° 67.1° 51.4% 3.9 MPH 383.0w/m2
06/15/2011 0.31" 0.25" 0.00" 0.25" 85.3° 58.4° 73.0° 37.9% 6.9 MPH 372.2w/m2
06/16/2011 0.25" 0.20" 0.00" 0.20" 71.2° 54.3° 61.8° 43.0% 9.7 MPH 305.1w/m2
06/17/2011 0.26" 0.21" 0.00" 0.21" 70.8° 46.7° 60.4° 33.9% 4.6 MPH 398.1w/m2
06/18/2011 0.27" 0.21" 0.00" 0.21" 80.1° 52.0° 68.1° 32.3% 6.0 MPH 310.3w/m2
06/19/2011 0.07" 0.06" 1.00" -0.74" 65.4° 50.2° 55.6° 80.2% 5.7 MPH 102.4w/m2
06/20/2011 0.24" 0.19" 0.00" 0.19" 72.3° 51.3° 61.9° 58.7% 4.2 MPH 384.6w/m2
06/21/2011 0.27" 0.21" 0.00" 0.21" 80.4° 54.7° 68.7° 40.8% 4.8 MPH 375.7w/m2
06/22/2011 0.29" 0.23" 0.00" 0.23" 89.6° 59.3° 75.8° 33.5% 4.5 MPH 377.7w/m2
06/23/2011 0.34" 0.27" 0.01" 0.26" 90.9° 69.4° 81.4° 30.0% 6.2 MPH 376.7w/m2
06/24/2011 0.29" 0.23" 0.00" 0.23" 86.2° 63.1° 76.1° 41.0% 4.5 MPH 378.8w/m2
06/25/2011 0.29" 0.23" 0.00" 0.23" 84.7° 63.1° 74.1° 44.7% 5.0 MPH 379.0w/m2
06/26/2011 0.30" 0.24" 0.00" 0.24" 81.4° 61.6° 72.5° 39.9% 5.9 MPH 388.6w/m2
06/27/2011 0.29" 0.23" 0.00" 0.23" 90.2° 58.4° 75.0° 40.1% 3.6 MPH 381.2w/m2
06/28/2011 0.44" 0.35" 0.00" 0.35" 97.7° 68.7° 83.9° 19.4% 11.1 MPH 346.4w/m2
06/29/2011 0.31" 0.25" 0.03" 0.22" 93.5° 73.3° 82.6° 23.8% 8.5 MPH 217.1w/m2
06/30/2011 0.27" 0.22" 0.00" 0.22" 82.6° 63.4° 73.6° 42.4% 4.9 MPH 353.1w/m2
Totals: 7.83" 6.26" 1.21" 5.30" 97.7° 45.3° 68.1° 41.6% 6.1 MPH 330.7w/m2